createdAt,value
2019-06-26T00:01:11.374Z,24.40
2019-06-26T00:03:42.855Z,24.30
2019-06-26T00:06:14.125Z,24.30
2019-06-26T00:08:45.390Z,24.30
2019-06-26T00:11:17.013Z,24.20
2019-06-26T00:13:50.401Z,24.10
2019-06-26T00:16:21.791Z,24.10
2019-06-26T00:18:53.390Z,24.10
2019-06-26T00:21:24.979Z,24.10
2019-06-26T00:23:56.869Z,24.10
2019-06-26T00:26:28.203Z,24.00
2019-06-26T00:28:59.487Z,24.00
2019-06-26T00:31:31.121Z,24.00
2019-06-26T00:34:02.136Z,24.00
2019-06-26T00:36:34.180Z,23.80
2019-06-26T00:39:07.297Z,23.70
2019-06-26T00:41:38.360Z,23.70
2019-06-26T00:44:09.394Z,23.70
2019-06-26T00:46:41.049Z,23.70
2019-06-26T00:49:11.707Z,23.50
2019-06-26T00:51:43.329Z,23.30
2019-06-26T00:54:14.683Z,23.40
2019-06-26T00:56:45.983Z,23.40
2019-06-26T00:59:17.981Z,23.50
2019-06-26T01:01:49.324Z,23.50
2019-06-26T01:04:24.109Z,23.50
2019-06-26T01:06:55.481Z,23.40
2019-06-26T01:09:25.937Z,23.40
2019-06-26T01:11:56.955Z,23.20
2019-06-26T01:14:28.258Z,23.20
2019-06-26T01:16:59.594Z,23.30
2019-06-26T01:19:30.269Z,23.20
2019-06-26T01:22:00.982Z,23.20
2019-06-26T01:24:32.320Z,23.30
2019-06-26T01:27:03.611Z,23.30
2019-06-26T01:29:35.136Z,23.20
2019-06-26T01:32:06.814Z,23.10
2019-06-26T01:34:38.458Z,23.10
2019-06-26T01:37:09.655Z,23.10
2019-06-26T01:39:41.072Z,23.10
2019-06-26T01:42:12.506Z,23.20
2019-06-26T01:44:43.832Z,23.10
2019-06-26T01:47:15.109Z,23.10
2019-06-26T01:49:46.387Z,23.00
2019-06-26T01:52:17.430Z,23.00
2019-06-26T01:54:48.396Z,23.00
2019-06-26T01:57:20.489Z,23.00
2019-06-26T01:59:52.091Z,23.00
2019-06-26T02:02:23.710Z,23.00
2019-06-26T02:04:55.397Z,22.90
2019-06-26T02:07:27.437Z,23.00
2019-06-26T02:09:58.599Z,23.00
2019-06-26T02:12:30.181Z,23.00
2019-06-26T02:15:01.468Z,23.00
2019-06-26T02:17:32.522Z,22.90
2019-06-26T02:20:04.162Z,23.00
2019-06-26T02:22:35.398Z,22.90
2019-06-26T02:25:06.766Z,22.80
2019-06-26T02:27:37.736Z,22.80
2019-06-26T02:30:09.908Z,22.80
2019-06-26T02:32:41.519Z,22.70
2019-06-26T02:35:13.346Z,22.70
2019-06-26T02:37:44.663Z,22.70
2019-06-26T02:40:16.320Z,22.70
2019-06-26T02:42:47.832Z,22.70
2019-06-26T02:45:19.603Z,22.60
2019-06-26T02:47:51.381Z,22.60
2019-06-26T02:50:23.399Z,22.60
2019-06-26T02:52:55.064Z,22.60
2019-06-26T02:55:26.003Z,22.60
2019-06-26T02:57:57.816Z,22.50
2019-06-26T03:00:29.546Z,22.40
2019-06-26T03:03:01.335Z,22.40
2019-06-26T03:05:32.705Z,22.30
2019-06-26T03:08:04.482Z,22.00
2019-06-26T03:10:35.536Z,22.00
2019-06-26T03:13:06.359Z,22.00
2019-06-26T03:15:38.162Z,22.00
2019-06-26T03:18:09.121Z,22.10
2019-06-26T03:20:46.198Z,22.20
2019-06-26T03:23:17.216Z,22.20
2019-06-26T03:25:49.267Z,22.20
2019-06-26T03:28:20.287Z,22.10
2019-06-26T03:30:51.348Z,22.10
2019-06-26T03:33:22.388Z,22.00
2019-06-26T03:35:53.376Z,22.00
2019-06-26T03:38:25.002Z,22.00
2019-06-26T03:40:56.650Z,22.10
2019-06-26T03:43:27.907Z,22.00
2019-06-26T03:45:59.453Z,22.00
2019-06-26T03:48:31.081Z,22.00
2019-06-26T03:51:03.078Z,22.00
2019-06-26T03:53:34.369Z,22.00
2019-06-26T03:56:05.795Z,21.90
2019-06-26T03:58:37.579Z,22.00
2019-06-26T04:01:09.604Z,22.10
2019-06-26T04:03:41.706Z,22.10
2019-06-26T04:06:13.479Z,22.10
2019-06-26T04:08:45.224Z,22.10
2019-06-26T04:11:17.104Z,22.00
2019-06-26T04:13:48.298Z,22.00
2019-06-26T04:16:20.495Z,22.20
2019-06-26T04:18:52.405Z,22.20
2019-06-26T04:21:23.460Z,22.20
2019-06-26T04:23:54.777Z,22.30
2019-06-26T04:26:26.098Z,22.30
2019-06-26T04:28:57.237Z,22.30
2019-06-26T04:31:29.030Z,22.30
2019-06-26T04:34:00.743Z,22.40
2019-06-26T04:36:32.719Z,22.50
2019-06-26T04:39:05.191Z,22.40
2019-06-26T04:41:36.763Z,22.50
2019-06-26T04:44:08.816Z,22.50
2019-06-26T04:46:40.222Z,22.60
2019-06-26T04:49:11.256Z,22.70
2019-06-26T04:51:42.879Z,22.60
2019-06-26T04:57:14.789Z,22.80
2019-06-26T04:59:46.049Z,23.00
2019-06-26T05:02:17.236Z,23.00
2019-06-26T05:04:48.720Z,23.00
2019-06-26T05:07:20.798Z,23.00
2019-06-26T05:09:52.800Z,23.00
2019-06-26T05:12:24.528Z,23.00
2019-06-26T05:14:56.199Z,23.00
2019-06-26T05:17:28.215Z,23.10
2019-06-26T05:19:59.473Z,23.20
2019-06-26T05:22:31.340Z,23.20
2019-06-26T05:25:03.021Z,23.30
2019-06-26T05:27:34.341Z,23.30
2019-06-26T05:30:05.939Z,23.50
2019-06-26T05:32:37.257Z,23.50
2019-06-26T05:35:08.940Z,23.50
2019-06-26T05:37:40.606Z,23.60
2019-06-26T05:40:13.108Z,23.70
2019-06-26T05:42:44.671Z,23.80
2019-06-26T05:45:16.171Z,23.90
2019-06-26T05:47:47.761Z,24.00
2019-06-26T05:50:20.294Z,23.90
2019-06-26T05:52:51.034Z,23.90
2019-06-26T05:55:23.087Z,24.00
2019-06-26T05:57:54.598Z,24.00
2019-06-26T06:00:26.275Z,24.00
2019-06-26T06:02:58.306Z,24.00
2019-06-26T06:05:29.596Z,24.30
2019-06-26T06:08:00.855Z,24.30
2019-06-26T06:10:32.433Z,24.30
2019-06-26T06:13:04.112Z,24.30
2019-06-26T06:15:35.763Z,24.40
2019-06-26T06:18:07.028Z,24.50
2019-06-26T06:20:40.827Z,24.50
2019-06-26T06:23:11.869Z,24.50
2019-06-26T06:25:43.459Z,24.80
2019-06-26T06:28:15.134Z,24.80
2019-06-26T06:30:46.733Z,24.90
2019-06-26T06:33:18.593Z,25.10
2019-06-26T06:35:49.898Z,25.30
2019-06-26T06:38:21.452Z,25.20
2019-06-26T06:40:52.487Z,25.10
2019-06-26T06:43:23.844Z,25.10
2019-06-26T06:45:54.826Z,25.00
2019-06-26T06:48:26.417Z,25.00
2019-06-26T06:50:57.814Z,25.00
2019-06-26T06:53:29.181Z,25.00
2019-06-26T06:56:00.839Z,25.20
2019-06-26T06:58:32.702Z,25.30
2019-06-26T07:01:04.409Z,25.30
2019-06-26T07:03:36.104Z,25.40
2019-06-26T07:06:08.093Z,25.50
2019-06-26T07:08:48.218Z,25.50
2019-06-26T07:11:19.273Z,25.60
2019-06-26T07:13:51.313Z,25.60
2019-06-26T07:16:22.276Z,25.60
2019-06-26T07:18:53.686Z,25.80
2019-06-26T07:21:24.699Z,26.20
2019-06-26T07:23:56.352Z,26.20
2019-06-26T07:26:27.419Z,26.30
2019-06-26T07:28:59.014Z,26.20
2019-06-26T07:31:30.739Z,26.20
2019-06-26T07:34:02.876Z,26.10
2019-06-26T07:36:34.227Z,26.50
2019-06-26T07:39:07.423Z,26.60
2019-06-26T07:41:40.218Z,26.70
2019-06-26T07:44:11.521Z,26.60
2019-06-26T07:46:42.900Z,26.60
2019-06-26T07:49:15.074Z,26.60
2019-06-26T07:51:46.839Z,26.70
2019-06-26T07:54:17.957Z,26.70
2019-06-26T07:56:49.751Z,26.80
2019-06-26T07:59:21.484Z,26.80
2019-06-26T08:01:52.535Z,27.00
2019-06-26T08:04:24.315Z,27.30
2019-06-26T08:06:56.013Z,27.60
2019-06-26T08:09:28.065Z,27.70
2019-06-26T08:11:59.845Z,27.80
2019-06-26T08:14:30.985Z,27.90
2019-06-26T08:17:02.554Z,27.80
2019-06-26T08:19:34.281Z,27.90
2019-06-26T08:22:05.679Z,28.00
2019-06-26T08:24:37.302Z,28.30
2019-06-26T08:27:12.819Z,28.40
2019-06-26T08:29:42.177Z,28.50
2019-06-26T08:32:13.266Z,28.50
2019-06-26T08:34:44.704Z,28.50
2019-06-26T08:37:16.601Z,28.50
2019-06-26T08:39:47.995Z,28.40
2019-06-26T08:42:19.404Z,28.30
2019-06-26T08:44:50.990Z,28.40
2019-06-26T08:47:22.965Z,28.80
2019-06-26T08:49:54.433Z,28.70
2019-06-26T08:52:26.016Z,28.90
2019-06-26T08:54:57.459Z,28.80
2019-06-26T08:57:29.048Z,28.80
2019-06-26T09:00:00.957Z,29.00
2019-06-26T09:02:32.267Z,29.50
2019-06-26T09:05:03.957Z,29.80
2019-06-26T09:07:35.045Z,29.80
2019-06-26T09:10:06.982Z,29.70
2019-06-26T09:12:38.011Z,29.70
2019-06-26T09:15:11.072Z,29.80
2019-06-26T09:17:42.652Z,30.10
2019-06-26T09:20:14.263Z,30.40
2019-06-26T09:22:45.971Z,30.40
2019-06-26T09:25:22.252Z,30.20
2019-06-26T09:27:51.177Z,30.10
2019-06-26T09:30:22.434Z,30.10
2019-06-26T09:32:53.515Z,30.50
2019-06-26T09:35:25.402Z,30.50
2019-06-26T09:37:57.689Z,30.60
2019-06-26T09:40:31.796Z,30.60
2019-06-26T09:43:01.838Z,30.60
2019-06-26T09:45:33.032Z,30.90
2019-06-26T09:48:04.814Z,30.90
2019-06-26T09:50:36.236Z,31.10
2019-06-26T09:53:08.145Z,31.40
2019-06-26T09:55:39.119Z,31.40
2019-06-26T09:58:13.189Z,31.80
2019-06-26T10:00:43.456Z,32.20
2019-06-26T10:03:14.786Z,33.00
2019-06-26T10:05:46.413Z,33.40
2019-06-26T10:08:18.026Z,34.30
2019-06-26T10:10:50.180Z,35.20
2019-06-26T10:13:21.164Z,35.90
2019-06-26T10:15:52.414Z,36.40
2019-06-26T10:18:24.327Z,36.80
2019-06-26T10:20:55.902Z,36.60
2019-06-26T10:23:27.475Z,37.00
2019-06-26T10:25:58.915Z,36.90
2019-06-26T10:28:30.198Z,37.00
2019-06-26T10:31:01.514Z,36.70
2019-06-26T10:33:32.489Z,37.10
2019-06-26T10:36:03.827Z,37.10
2019-06-26T10:38:35.360Z,37.20
2019-06-26T10:41:07.225Z,37.20
2019-06-26T10:43:38.579Z,37.30
2019-06-26T10:46:10.135Z,37.10
2019-06-26T10:48:41.390Z,37.20
2019-06-26T10:51:12.655Z,37.40
2019-06-26T10:53:44.585Z,37.60
2019-06-26T10:56:15.861Z,37.80
2019-06-26T10:58:47.202Z,37.60
2019-06-26T11:01:19.194Z,37.40
2019-06-26T11:03:50.275Z,37.50
2019-06-26T11:06:22.042Z,37.60
2019-06-26T11:08:53.308Z,37.70
2019-06-26T11:11:24.739Z,37.50
2019-06-26T11:13:56.528Z,37.60
2019-06-26T11:16:27.224Z,37.70
2019-06-26T11:18:58.494Z,37.90
2019-06-26T11:21:29.743Z,38.20
2019-06-26T11:24:01.508Z,38.40
2019-06-26T11:26:32.936Z,38.40
2019-06-26T11:29:04.469Z,38.50
2019-06-26T11:31:35.845Z,38.40
2019-06-26T11:34:07.452Z,38.30
2019-06-26T11:36:38.789Z,38.40
2019-06-26T11:39:10.880Z,38.40
2019-06-26T11:41:41.952Z,38.40
2019-06-26T11:44:13.506Z,38.20
2019-06-26T11:46:45.102Z,38.60
2019-06-26T11:49:17.183Z,38.70
2019-06-26T11:51:48.871Z,38.70
2019-06-26T11:54:20.184Z,38.90
2019-06-26T11:56:51.144Z,39.00
2019-06-26T11:59:22.417Z,39.00
2019-06-26T12:01:54.054Z,39.20
2019-06-26T12:04:25.952Z,39.20
2019-06-26T12:06:57.441Z,39.20
2019-06-26T12:09:29.031Z,39.30
2019-06-26T12:12:00.947Z,39.50
2019-06-26T12:14:32.230Z,39.50
2019-06-26T12:17:03.302Z,39.50
2019-06-26T12:19:34.322Z,39.40
2019-06-26T12:22:06.281Z,39.20
2019-06-26T12:24:37.978Z,39.40
2019-06-26T12:27:09.628Z,39.50
2019-06-26T12:29:41.201Z,39.60
2019-06-26T12:32:12.467Z,39.80
2019-06-26T12:34:45.218Z,40.00
2019-06-26T12:37:16.937Z,40.00
2019-06-26T12:39:48.611Z,39.70
2019-06-26T12:42:20.124Z,40.00
2019-06-26T12:44:51.720Z,39.90
2019-06-26T12:47:22.408Z,40.00
2019-06-26T12:49:53.081Z,40.10
2019-06-26T12:52:24.921Z,40.10
2019-06-26T12:54:56.565Z,39.70
2019-06-26T12:57:28.680Z,39.60
2019-06-26T13:00:00.754Z,39.80
2019-06-26T13:02:31.753Z,39.80
2019-06-26T13:05:03.494Z,39.80
2019-06-26T13:07:35.106Z,39.60
2019-06-26T13:10:07.755Z,39.70
2019-06-26T13:12:39.899Z,39.90
2019-06-26T13:15:12.860Z,40.10
2019-06-26T13:17:44.199Z,40.10
2019-06-26T13:20:15.746Z,40.20
2019-06-26T13:22:47.423Z,40.60
2019-06-26T13:25:18.437Z,40.90
2019-06-26T13:27:49.728Z,40.80
2019-06-26T13:30:30.789Z,41.10
2019-06-26T13:33:01.997Z,40.90
2019-06-26T13:35:33.584Z,40.90
2019-06-26T13:38:04.587Z,40.90
2019-06-26T13:40:36.621Z,40.80
2019-06-26T13:43:08.245Z,40.70
2019-06-26T13:45:40.436Z,40.70
2019-06-26T13:48:12.288Z,41.00
2019-06-26T13:50:43.615Z,41.60
2019-06-26T13:53:15.171Z,41.50
2019-06-26T13:55:47.052Z,41.70
2019-06-26T13:58:18.492Z,41.40
2019-06-26T14:00:50.101Z,41.60
2019-06-26T14:03:22.126Z,41.60
2019-06-26T14:05:53.688Z,41.60
2019-06-26T14:08:24.840Z,41.50
2019-06-26T14:10:56.401Z,41.70
2019-06-26T14:13:27.651Z,41.70
2019-06-26T14:15:59.327Z,41.50
2019-06-26T14:18:30.618Z,41.60
2019-06-26T14:21:02.034Z,41.60
2019-06-26T14:23:33.179Z,41.60
2019-06-26T14:26:04.615Z,41.70
2019-06-26T14:28:36.287Z,41.70
2019-06-26T14:31:08.142Z,41.30
2019-06-26T14:33:39.487Z,41.10
2019-06-26T14:36:11.614Z,41.20
2019-06-26T14:38:42.884Z,41.60
2019-06-26T14:41:14.610Z,41.40
2019-06-26T14:43:47.087Z,41.60
2019-06-26T14:46:18.099Z,41.40
2019-06-26T14:48:49.041Z,41.40
2019-06-26T14:51:20.663Z,41.50
2019-06-26T14:53:51.655Z,41.50
2019-06-26T14:56:23.309Z,41.60
2019-06-26T14:58:54.600Z,41.70
2019-06-26T15:01:26.185Z,41.70
2019-06-26T15:03:57.991Z,41.90
2019-06-26T15:06:29.164Z,41.70
2019-06-26T15:09:00.406Z,41.70
2019-06-26T15:11:31.756Z,41.60
2019-06-26T15:14:02.760Z,41.50
2019-06-26T15:16:34.456Z,41.20
2019-06-26T15:19:05.424Z,40.90
2019-06-26T15:21:37.410Z,41.30
2019-06-26T15:24:09.259Z,41.70
2019-06-26T15:26:40.574Z,42.00
2019-06-26T15:29:12.122Z,42.00
2019-06-26T15:31:43.905Z,41.90
2019-06-26T15:34:15.164Z,41.80
2019-06-26T15:36:47.113Z,41.60
2019-06-26T15:39:18.760Z,41.40
2019-06-26T15:41:50.105Z,41.60
2019-06-26T15:44:21.903Z,41.60
2019-06-26T15:46:53.178Z,41.50
2019-06-26T15:49:24.119Z,41.60
2019-06-26T15:51:55.750Z,41.70
2019-06-26T15:54:26.968Z,41.70
2019-06-26T15:56:58.511Z,41.70
2019-06-26T15:59:31.278Z,41.50
2019-06-26T16:02:02.617Z,41.50
2019-06-26T16:04:35.349Z,41.10
2019-06-26T16:07:07.310Z,40.90
2019-06-26T16:09:39.197Z,41.00
2019-06-26T16:12:10.823Z,40.90
2019-06-26T16:14:42.359Z,40.90
2019-06-26T16:17:20.783Z,41.00
2019-06-26T16:19:52.764Z,40.80
2019-06-26T16:22:32.387Z,40.60
2019-06-26T16:24:57.292Z,40.60
2019-06-26T16:27:29.373Z,40.30
2019-06-26T16:30:00.622Z,40.20
2019-06-26T16:32:31.840Z,40.00
2019-06-26T16:35:03.828Z,39.90
2019-06-26T16:37:35.616Z,39.80
2019-06-26T16:40:07.609Z,39.80
2019-06-26T16:42:39.847Z,39.90
2019-06-26T16:45:12.412Z,39.80
2019-06-26T16:47:43.802Z,39.90
2019-06-26T16:50:15.353Z,40.20
2019-06-26T16:52:49.753Z,40.40
2019-06-26T16:55:20.813Z,40.50
2019-06-26T16:57:52.978Z,40.40
2019-06-26T17:00:24.654Z,40.70
2019-06-26T17:02:56.047Z,40.70
2019-06-26T17:05:28.055Z,40.50
2019-06-26T17:07:59.629Z,40.90
2019-06-26T17:10:30.910Z,40.80
2019-06-26T17:13:02.247Z,40.70
2019-06-26T17:15:33.880Z,40.60
2019-06-26T17:18:05.165Z,40.30
2019-06-26T17:20:36.862Z,40.10
2019-06-26T17:23:07.560Z,40.10
2019-06-26T17:25:39.163Z,40.10
2019-06-26T17:28:10.491Z,40.10
2019-06-26T17:30:41.736Z,40.40
2019-06-26T17:33:13.948Z,40.30
2019-06-26T17:35:45.272Z,40.10
2019-06-26T17:38:16.827Z,39.90
2019-06-26T17:40:48.437Z,39.80
2019-06-26T17:43:20.446Z,39.60
2019-06-26T17:45:52.000Z,39.40
2019-06-26T17:48:23.348Z,39.20
2019-06-26T17:50:54.787Z,39.10
2019-06-26T17:53:26.433Z,38.90
2019-06-26T17:55:57.853Z,38.80
2019-06-26T17:58:29.238Z,38.60
2019-06-26T18:01:00.865Z,38.70
2019-06-26T18:03:32.276Z,38.60
2019-06-26T18:06:03.915Z,38.30
2019-06-26T18:08:35.465Z,38.10
2019-06-26T18:11:06.691Z,38.10
2019-06-26T18:13:37.865Z,38.00
2019-06-26T18:16:09.758Z,37.70
2019-06-26T18:18:41.141Z,37.50
2019-06-26T18:21:12.335Z,37.30
2019-06-26T18:23:43.402Z,37.20
2019-06-26T18:26:14.697Z,37.20
2019-06-26T18:28:46.258Z,37.00
2019-06-26T18:31:17.729Z,36.80
2019-06-26T18:33:49.842Z,36.70
2019-06-26T18:36:21.458Z,36.50
2019-06-26T18:38:52.902Z,36.30
2019-06-26T18:41:24.763Z,36.10
2019-06-26T18:43:56.560Z,35.80
2019-06-26T18:46:27.588Z,35.60
2019-06-26T18:48:58.388Z,35.40
2019-06-26T18:51:29.551Z,35.20
2019-06-26T18:54:01.318Z,35.00
2019-06-26T18:57:01.660Z,34.90
2019-06-26T18:59:32.722Z,34.70
2019-06-26T19:02:03.407Z,34.50
2019-06-26T19:04:35.061Z,34.40
2019-06-26T19:07:06.441Z,34.20
2019-06-26T19:09:38.084Z,34.10
2019-06-26T19:12:09.148Z,33.90
2019-06-26T19:14:40.809Z,33.90
2019-06-26T19:17:12.453Z,33.70
2019-06-26T19:19:45.978Z,33.60
2019-06-26T19:22:17.691Z,33.60
2019-06-26T19:24:49.303Z,33.30
2019-06-26T19:27:21.013Z,33.10
2019-06-26T19:29:52.630Z,33.00
2019-06-26T19:32:24.196Z,32.90
2019-06-26T19:34:54.983Z,32.70
2019-06-26T19:37:26.018Z,32.60
2019-06-26T19:39:57.892Z,32.40
2019-06-26T19:42:29.889Z,32.30
2019-06-26T19:45:01.521Z,32.30
2019-06-26T19:47:33.391Z,32.20
2019-06-26T19:50:05.162Z,32.10
2019-06-26T19:52:37.485Z,31.90
2019-06-26T19:55:09.394Z,31.90
2019-06-26T19:57:41.292Z,31.70
2019-06-26T20:00:12.850Z,31.60
2019-06-26T20:02:44.669Z,31.40
2019-06-26T20:05:18.185Z,31.20
2019-06-26T20:07:49.736Z,31.20
2019-06-26T20:10:22.351Z,31.10
2019-06-26T20:12:53.933Z,31.00
2019-06-26T20:15:25.342Z,30.90
2019-06-26T20:17:57.227Z,30.80
2019-06-26T20:20:29.205Z,30.70
2019-06-26T20:23:00.640Z,30.60
2019-06-26T20:25:32.461Z,30.50
2019-06-26T20:28:03.832Z,30.50
2019-06-26T20:30:35.789Z,30.40
2019-06-26T20:33:07.489Z,30.30
2019-06-26T20:35:39.069Z,30.10
2019-06-26T20:38:10.693Z,29.80
2019-06-26T20:40:45.598Z,29.60
2019-06-26T20:43:15.155Z,29.60
2019-06-26T20:45:46.839Z,29.60
2019-06-26T20:48:18.611Z,29.30
2019-06-26T20:50:50.668Z,29.30
2019-06-26T20:53:22.142Z,29.20
2019-06-26T20:55:53.616Z,29.10
2019-06-26T20:58:26.124Z,29.10
2019-06-26T21:00:57.725Z,29.10
2019-06-26T21:03:28.472Z,29.00
2019-06-26T21:06:00.247Z,29.00
2019-06-26T21:08:32.304Z,29.00
2019-06-26T21:11:03.752Z,28.90
2019-06-26T21:13:35.513Z,28.80
2019-06-26T21:16:06.813Z,28.80
2019-06-26T21:18:38.496Z,28.70
2019-06-26T21:21:10.039Z,28.60
2019-06-26T21:23:41.848Z,28.50
2019-06-26T21:26:13.422Z,28.40
2019-06-26T21:28:44.736Z,28.40
2019-06-26T21:31:16.754Z,28.40
2019-06-26T21:33:48.367Z,28.30
2019-06-26T21:36:19.665Z,28.10
2019-06-26T21:38:51.070Z,27.90
2019-06-26T21:41:22.059Z,27.90
2019-06-26T21:43:53.402Z,27.90
2019-06-26T21:46:25.057Z,28.10
2019-06-26T21:48:56.361Z,28.30
2019-06-26T21:51:27.884Z,28.30
2019-06-26T21:53:59.774Z,27.80
2019-06-26T21:56:31.600Z,27.90
2019-06-26T21:59:02.630Z,28.10
2019-06-26T22:01:34.334Z,27.90
2019-06-26T22:04:06.401Z,27.80
2019-06-26T22:06:37.812Z,27.70
2019-06-26T22:09:09.127Z,27.60
2019-06-26T22:11:40.139Z,27.60
2019-06-26T22:14:11.094Z,27.60
2019-06-26T22:16:42.690Z,27.50
2019-06-26T22:19:13.998Z,27.50
2019-06-26T22:21:44.957Z,27.50
2019-06-26T22:24:16.206Z,27.40
2019-06-26T22:26:47.489Z,27.30
2019-06-26T22:29:19.165Z,27.20
2019-06-26T22:31:50.450Z,27.20
2019-06-26T22:34:22.359Z,27.20
2019-06-26T22:36:53.644Z,27.10
2019-06-26T22:39:25.451Z,27.10
2019-06-26T22:41:56.428Z,27.00
2019-06-26T22:44:28.156Z,26.90
2019-06-26T22:47:00.245Z,27.00
2019-06-26T22:49:32.351Z,27.00
2019-06-26T22:52:03.946Z,27.00
2019-06-26T22:54:35.209Z,27.00
2019-06-26T22:57:06.912Z,27.00
2019-06-26T22:59:38.512Z,27.00
2019-06-26T23:02:10.641Z,26.90
2019-06-26T23:04:41.953Z,26.90
2019-06-26T23:07:12.657Z,26.80
2019-06-26T23:09:44.202Z,26.80
2019-06-26T23:12:15.223Z,26.80
2019-06-26T23:14:46.173Z,26.80
2019-06-26T23:17:18.196Z,26.70
2019-06-26T23:19:49.760Z,26.70
2019-06-26T23:22:21.139Z,26.60
2019-06-26T23:24:52.701Z,26.60
2019-06-26T23:27:24.963Z,26.60
2019-06-26T23:29:56.244Z,26.60
2019-06-26T23:32:28.107Z,26.50
2019-06-26T23:35:00.766Z,26.50
2019-06-26T23:37:32.085Z,26.40
2019-06-26T23:40:03.661Z,26.30
2019-06-26T23:42:35.133Z,26.40
2019-06-26T23:45:06.569Z,26.30
2019-06-26T23:47:38.189Z,26.30
2019-06-26T23:50:09.569Z,26.20
2019-06-26T23:52:41.448Z,26.20
2019-06-26T23:55:13.035Z,26.10
2019-06-26T23:57:58.026Z,26.10
